Time;durP1;ratioP1;P1;durP2;ratioP2;P2;SDS_P1;SDS_P2;PMS_P1;PMS_P2;Temp;Humidity;BMP_temperature;BMP_pressure;BME280_temperature;BME280_humidity;BME280_pressure;Samples;Min_cycle;Max_cycle;Signal;HPM_P1;HPM_P2
2022/12/02 00:00:20;;;;;;;28.13;19.67;;;;;;;;;;4872022;29;20207;-58
2022/12/02 00:02:46;;;;;;;28.43;19.17;;;;;;;;;;4870712;29;20179;-58
2022/12/02 00:05:30;;;;;;;30.37;18.63;;;;;;;;;;4869210;29;20179;-59
2022/12/02 00:08:00;;;;;;;28.27;19.50;;;;;;;;;;4873098;29;20612;-58
2022/12/02 00:10:28;;;;;;;31.23;18.63;;;;;;;;;;4872895;29;20155;-59
2022/12/02 00:12:55;;;;;;;34.33;21.40;;;;;;;;;;4871347;29;20642;-58
2022/12/02 00:15:43;;;;;;;28.87;18.83;;;;;;;;;;4870775;29;20270;-59
2022/12/02 00:18:10;;;;;;;33.53;19.57;;;;;;;;;;4854635;29;20175;-58
2022/12/02 00:20:36;;;;;;;30.90;19.37;;;;;;;;;;4853455;29;20203;-58
2022/12/02 00:23:02;;;;;;;30.43;18.57;;;;;;;;;;4855545;29;20186;-58
2022/12/02 00:25:28;;;;;;;33.40;19.60;;;;;;;;;;4872028;29;20207;-58
2022/12/02 00:28:01;;;;;;;32.10;20.47;;;;;;;;;;4869830;29;20179;-58
2022/12/02 00:30:27;;;;;;;32.67;19.47;;;;;;;;;;4865143;29;20529;-59
2022/12/02 00:32:53;;;;;;;30.60;19.63;;;;;;;;;;4869972;29;20265;-58
2022/12/02 00:35:19;;;;;;;32.33;18.57;;;;;;;;;;4871136;29;20670;-59
2022/12/02 00:37:46;;;;;;;32.97;19.63;;;;;;;;;;4871720;29;20585;-58
2022/12/02 00:40:12;;;;;;;30.90;19.77;;;;;;;;;;4871288;29;20168;-58
2022/12/02 00:42:38;;;;;;;35.30;20.73;;;;;;;;;;4870550;29;20345;-58
2022/12/02 00:47:49;;;;;;;33.00;19.40;;;;;;;;;;4859544;29;20255;-58
2022/12/02 00:50:15;;;;;;;37.47;20.20;;;;;;;;;;4871562;29;20642;-58
2022/12/02 00:52:41;;;;;;;35.03;19.50;;;;;;;;;;4869422;29;20183;-58
2022/12/02 00:55:07;;;;;;;33.30;19.23;;;;;;;;;;4872395;29;20180;-58
2022/12/02 00:57:33;;;;;;;32.33;20.80;;;;;;;;;;4870171;29;20266;-58
2022/12/02 00:59:59;;;;;;;35.93;20.03;;;;;;;;;;4872943;29;20183;-59
2022/12/02 01:02:25;;;;;;;36.67;22.57;;;;;;;;;;4874222;29;20190;-58
2022/12/02 01:04:51;;;;;;;37.83;20.77;;;;;;;;;;4876365;29;20251;-58
2022/12/02 01:07:17;;;;;;;31.83;20.33;;;;;;;;;;4873960;29;20268;-58
2022/12/02 01:09:43;;;;;;;32.10;19.00;;;;;;;;;;4875927;29;20163;-58
2022/12/02 01:12:09;;;;;;;32.30;19.53;;;;;;;;;;4871644;29;20179;-58
2022/12/02 01:14:35;;;;;;;32.90;20.20;;;;;;;;;;4865351;29;20184;-58
2022/12/02 01:17:01;;;;;;;37.43;20.80;;;;;;;;;;4857351;29;20172;-59
2022/12/02 01:19:27;;;;;;;34.20;20.13;;;;;;;;;;4875834;29;20803;-58
2022/12/02 01:21:54;;;;;;;31.87;20.83;;;;;;;;;;4870372;29;20597;-58
2022/12/02 01:24:20;;;;;;;31.57;19.43;;;;;;;;;;4875095;29;20228;-58
2022/12/02 01:26:46;;;;;;;37.77;20.63;;;;;;;;;;4873595;29;20195;-58
2022/12/02 01:29:12;;;;;;;33.07;20.27;;;;;;;;;;4874348;29;20218;-58
2022/12/02 01:31:38;;;;;;;38.47;21.63;;;;;;;;;;4872113;29;20693;-58
2022/12/02 01:34:04;;;;;;;32.30;18.23;;;;;;;;;;4876461;29;20230;-58
2022/12/02 01:36:30;;;;;;;30.87;19.23;;;;;;;;;;4873501;29;20195;-58
2022/12/02 01:38:56;;;;;;;30.00;18.63;;;;;;;;;;4857806;29;20194;-59
2022/12/02 01:41:22;;;;;;;33.33;18.43;;;;;;;;;;4871758;29;20603;-59
2022/12/02 01:43:48;;;;;;;31.53;18.37;;;;;;;;;;4874380;29;20187;-58
2022/12/02 01:46:14;;;;;;;30.87;19.03;;;;;;;;;;4874442;29;20267;-58
2022/12/02 01:48:40;;;;;;;32.53;18.63;;;;;;;;;;4874920;29;20542;-58
2022/12/02 01:51:07;;;;;;;36.03;20.43;;;;;;;;;;4872004;29;20833;-59
2022/12/02 01:53:33;;;;;;;32.20;19.47;;;;;;;;;;4873988;29;20198;-58
2022/12/02 01:55:59;;;;;;;30.43;19.13;;;;;;;;;;4874090;29;20187;-58
2022/12/02 01:58:27;;;;;;;33.13;19.03;;;;;;;;;;4874677;29;20767;-58
2022/12/02 02:00:54;;;;;;;26.53;17.37;;;;;;;;;;4872241;29;20305;-58
2022/12/02 02:03:20;;;;;;;29.80;17.67;;;;;;;;;;4874004;29;20180;-58
2022/12/02 02:05:47;;;;;;;30.70;18.43;;;;;;;;;;4872922;29;20226;-58
2022/12/02 02:08:13;;;;;;;32.80;18.53;;;;;;;;;;4874919;29;20238;-59
2022/12/02 02:10:40;;;;;;;30.80;19.27;;;;;;;;;;4870434;29;20187;-58
2022/12/02 02:13:07;;;;;;;27.37;17.43;;;;;;;;;;4874593;29;20359;-58
2022/12/02 02:15:34;;;;;;;29.30;17.50;;;;;;;;;;4873352;29;20287;-59
2022/12/02 02:18:00;;;;;;;32.10;17.50;;;;;;;;;;4871638;29;20357;-59
2022/12/02 02:20:27;;;;;;;32.83;18.30;;;;;;;;;;4870675;29;20199;-59
2022/12/02 02:23:05;;;;;;;29.13;18.03;;;;;;;;;;4870490;29;20579;-58
2022/12/02 02:25:32;;;;;;;29.47;17.73;;;;;;;;;;4873657;29;20266;-58
2022/12/02 02:27:59;;;;;;;31.97;17.80;;;;;;;;;;4874457;29;20297;-58
2022/12/02 02:30:29;;;;;;;33.23;17.93;;;;;;;;;;4871485;29;20190;-59
2022/12/02 02:32:55;;;;;;;33.03;18.80;;;;;;;;;;4867209;29;20239;-58
2022/12/02 02:35:22;;;;;;;32.13;17.90;;;;;;;;;;4871965;29;20179;-58
2022/12/02 02:37:48;;;;;;;31.13;17.53;;;;;;;;;;4873179;29;20638;-58
2022/12/02 02:40:16;;;;;;;29.20;17.57;;;;;;;;;;4870429;29;20266;-58
2022/12/02 02:42:47;;;;;;;28.33;17.93;;;;;;;;;;4871497;29;20883;-58
2022/12/02 02:45:13;;;;;;;30.00;18.07;;;;;;;;;;4872285;29;20186;-58
2022/12/02 02:47:39;;;;;;;27.50;17.27;;;;;;;;;;4873427;29;20183;-58
2022/12/02 02:50:06;;;;;;;28.20;17.67;;;;;;;;;;4871714;29;20242;-58
2022/12/02 02:52:32;;;;;;;26.20;15.67;;;;;;;;;;4870797;29;20202;-58
2022/12/02 02:54:58;;;;;;;27.60;16.33;;;;;;;;;;4873360;29;20184;-58
2022/12/02 02:57:24;;;;;;;26.43;15.70;;;;;;;;;;4873363;29;20832;-58
2022/12/02 02:59:52;;;;;;;27.73;16.70;;;;;;;;;;4871612;29;20866;-58
2022/12/02 03:02:18;;;;;;;24.37;16.13;;;;;;;;;;4872909;29;20199;-59
2022/12/02 03:04:44;;;;;;;27.43;15.53;;;;;;;;;;4872530;29;20183;-58
2022/12/02 03:07:10;;;;;;;25.90;15.57;;;;;;;;;;4870911;29;20192;-58
2022/12/02 03:09:36;;;;;;;28.57;15.80;;;;;;;;;;4872668;29;20179;-59
2022/12/02 03:12:02;;;;;;;25.10;15.57;;;;;;;;;;4871418;29;20207;-58
2022/12/02 03:14:29;;;;;;;26.33;15.97;;;;;;;;;;4872290;29;20230;-58
2022/12/02 03:16:56;;;;;;;27.93;15.53;;;;;;;;;;4872994;29;20179;-58
2022/12/02 03:19:22;;;;;;;28.60;17.47;;;;;;;;;;4872206;29;20191;-58
2022/12/02 03:21:48;;;;;;;27.67;16.90;;;;;;;;;;4869220;29;20409;-58
2022/12/02 03:24:14;;;;;;;23.90;16.40;;;;;;;;;;4872770;29;20602;-59
2022/12/02 03:26:41;;;;;;;24.87;15.57;;;;;;;;;;4872137;29;20184;-58
2022/12/02 03:29:08;;;;;;;24.37;15.63;;;;;;;;;;4872456;29;20572;-58
2022/12/02 03:31:34;;;;;;;21.00;14.40;;;;;;;;;;4870904;29;20650;-58
2022/12/02 03:34:00;;;;;;;27.30;15.50;;;;;;;;;;4872945;29;20643;-59
2022/12/02 03:36:26;;;;;;;22.33;14.83;;;;;;;;;;4870877;29;20250;-58
2022/12/02 03:38:53;;;;;;;23.63;15.83;;;;;;;;;;4866687;29;20178;-58
2022/12/02 03:41:19;;;;;;;26.77;16.60;;;;;;;;;;4870228;29;21640;-58
2022/12/02 03:43:45;;;;;;;27.00;15.53;;;;;;;;;;4873061;29;20175;-58
2022/12/02 03:46:12;;;;;;;23.80;14.27;;;;;;;;;;4872871;29;20164;-58
2022/12/02 03:48:39;;;;;;;23.60;15.37;;;;;;;;;;4873138;29;20167;-58
2022/12/02 03:51:05;;;;;;;22.03;14.67;;;;;;;;;;4854293;29;20187;-58
2022/12/02 03:53:32;;;;;;;21.23;13.97;;;;;;;;;;4868802;29;20690;-58
2022/12/02 03:56:01;;;;;;;26.13;16.20;;;;;;;;;;4871778;29;20183;-58
2022/12/02 03:58:44;;;;;;;23.77;14.40;;;;;;;;;;4872455;29;20236;-59
2022/12/02 04:01:10;;;;;;;24.70;14.67;;;;;;;;;;4870435;29;20744;-59
2022/12/02 04:03:36;;;;;;;23.23;14.77;;;;;;;;;;4872966;29;20615;-58
2022/12/02 04:06:02;;;;;;;24.47;14.70;;;;;;;;;;4870242;29;20183;-58
2022/12/02 04:08:28;;;;;;;25.17;15.00;;;;;;;;;;4873209;29;20167;-58
2022/12/02 04:10:55;;;;;;;21.67;14.53;;;;;;;;;;4870852;29;20272;-58
2022/12/02 04:13:21;;;;;;;24.37;14.70;;;;;;;;;;4871989;29;20198;-58
2022/12/02 04:15:47;;;;;;;24.30;14.50;;;;;;;;;;4872510;29;20167;-59
2022/12/02 04:18:13;;;;;;;25.10;15.33;;;;;;;;;;4872664;29;20600;-58
2022/12/02 04:20:39;;;;;;;26.50;15.27;;;;;;;;;;4868790;29;20264;-58
2022/12/02 04:23:06;;;;;;;21.73;14.40;;;;;;;;;;4871206;29;20193;-59
2022/12/02 04:25:32;;;;;;;26.50;16.10;;;;;;;;;;4870986;29;20194;-59
2022/12/02 04:27:58;;;;;;;23.97;14.80;;;;;;;;;;4872833;29;20187;-58
2022/12/02 04:30:24;;;;;;;24.17;13.93;;;;;;;;;;4871230;29;20191;-58
2022/12/02 04:32:50;;;;;;;25.93;15.27;;;;;;;;;;4871971;29;20298;-58
2022/12/02 04:35:16;;;;;;;22.53;14.53;;;;;;;;;;4877310;29;20182;-59
2022/12/02 04:37:42;;;;;;;21.40;13.93;;;;;;;;;;4877860;29;20590;-58
2022/12/02 04:40:08;;;;;;;23.93;14.10;;;;;;;;;;4860231;29;20182;-58
2022/12/02 04:42:34;;;;;;;22.57;14.43;;;;;;;;;;4877644;29;20791;-58
2022/12/02 04:45:00;;;;;;;27.80;16.23;;;;;;;;;;4878747;29;20186;-58
2022/12/02 04:47:26;;;;;;;25.33;15.63;;;;;;;;;;4878620;29;20717;-59
2022/12/02 04:49:52;;;;;;;23.80;15.30;;;;;;;;;;4877127;29;20540;-59
2022/12/02 04:52:18;;;;;;;28.03;15.77;;;;;;;;;;4876149;29;20619;-58
2022/12/02 04:54:44;;;;;;;20.07;13.80;;;;;;;;;;4863721;29;20270;-58
2022/12/02 04:57:11;;;;;;;22.37;14.70;;;;;;;;;;4862008;29;20261;-59
2022/12/02 04:59:37;;;;;;;28.90;15.60;;;;;;;;;;4878276;29;20283;-59
2022/12/02 05:02:03;;;;;;;24.50;13.83;;;;;;;;;;4876707;29;20317;-59
2022/12/02 05:04:29;;;;;;;22.03;14.80;;;;;;;;;;4877424;29;20187;-58
2022/12/02 05:06:55;;;;;;;25.17;15.23;;;;;;;;;;4875596;29;20176;-59
2022/12/02 05:09:21;;;;;;;24.47;15.47;;;;;;;;;;4878333;29;20274;-58
2022/12/02 05:11:47;;;;;;;23.87;14.27;;;;;;;;;;4859047;29;20225;-58
2022/12/02 05:14:13;;;;;;;24.43;14.77;;;;;;;;;;4873095;29;20243;-58
2022/12/02 05:16:39;;;;;;;26.37;14.80;;;;;;;;;;4875338;29;20195;-58
2022/12/02 05:19:05;;;;;;;27.17;15.17;;;;;;;;;;4877520;29;20193;-58
2022/12/02 05:21:31;;;;;;;25.07;15.53;;;;;;;;;;4874628;29;20211;-59
2022/12/02 05:23:57;;;;;;;23.67;15.03;;;;;;;;;;4876388;29;20263;-58
2022/12/02 05:26:23;;;;;;;23.23;15.03;;;;;;;;;;4877553;29;20530;-58
2022/12/02 05:28:49;;;;;;;24.27;14.90;;;;;;;;;;4877495;29;20556;-58
2022/12/02 05:31:15;;;;;;;23.23;15.10;;;;;;;;;;4872934;29;20179;-58
2022/12/02 05:33:41;;;;;;;23.77;15.50;;;;;;;;;;4876491;29;20231;-59
2022/12/02 05:36:11;;;;;;;23.50;13.47;;;;;;;;;;4878176;29;20187;-58
2022/12/02 05:38:37;;;;;;;21.60;14.57;;;;;;;;;;4878013;29;20190;-59
2022/12/02 05:41:03;;;;;;;24.30;14.53;;;;;;;;;;4873057;29;20211;-58
2022/12/02 05:43:33;;;;;;;29.27;16.27;;;;;;;;;;4876968;29;20242;-58
2022/12/02 05:45:59;;;;;;;28.00;16.67;;;;;;;;;;4874307;29;20717;-59
2022/12/02 05:48:25;;;;;;;24.10;14.93;;;;;;;;;;4871988;29;20730;-58
2022/12/02 05:50:53;;;;;;;30.33;15.57;;;;;;;;;;4861799;29;20686;-58
2022/12/02 05:53:27;;;;;;;25.50;15.03;;;;;;;;;;4873671;29;20655;-58
2022/12/02 05:55:54;;;;;;;23.83;15.17;;;;;;;;;;4860959;29;20247;-58
2022/12/02 05:58:20;;;;;;;26.00;14.77;;;;;;;;;;4870546;29;20198;-58
2022/12/02 06:00:57;;;;;;;21.87;14.30;;;;;;;;;;4866903;29;20203;-59
2022/12/02 06:03:30;;;;;;;25.30;14.60;;;;;;;;;;4870407;29;20659;-59
2022/12/02 06:05:56;;;;;;;27.83;15.90;;;;;;;;;;4869815;29;20175;-58
2022/12/02 06:08:25;;;;;;;24.03;14.43;;;;;;;;;;4874748;29;20698;-58
2022/12/02 06:10:53;;;;;;;24.63;16.13;;;;;;;;;;4853165;29;20258;-59
2022/12/02 06:13:23;;;;;;;24.33;15.00;;;;;;;;;;4873547;29;20315;-58
2022/12/02 06:15:50;;;;;;;23.00;13.83;;;;;;;;;;4871920;29;20188;-59
2022/12/02 06:18:17;;;;;;;28.37;15.80;;;;;;;;;;4870686;29;20194;-58
2022/12/02 06:20:44;;;;;;;27.50;14.57;;;;;;;;;;4866834;29;20365;-59
2022/12/02 06:23:20;;;;;;;25.37;14.83;;;;;;;;;;4874450;29;20187;-59
2022/12/02 06:25:47;;;;;;;26.33;13.83;;;;;;;;;;4871927;29;20203;-58
2022/12/02 06:28:22;;;;;;;27.27;15.03;;;;;;;;;;4870924;29;20187;-59
2022/12/02 06:30:49;;;;;;;23.70;13.97;;;;;;;;;;4867268;29;20705;-58
2022/12/02 06:33:21;;;;;;;23.63;13.70;;;;;;;;;;4869502;29;20563;-58
2022/12/02 06:35:47;;;;;;;22.63;14.10;;;;;;;;;;4869173;29;20183;-58
2022/12/02 06:38:19;;;;;;;20.60;13.47;;;;;;;;;;4861637;29;20464;-59
2022/12/02 06:40:45;;;;;;;25.97;16.10;;;;;;;;;;4864290;29;20210;-59
2022/12/02 06:43:24;;;;;;;20.63;13.50;;;;;;;;;;4868027;29;20775;-58
2022/12/02 06:45:50;;;;;;;27.47;14.60;;;;;;;;;;4867698;29;20211;-58
2022/12/02 06:48:31;;;;;;;21.07;13.53;;;;;;;;;;4869962;29;20390;-58
2022/12/02 06:51:00;;;;;;;21.63;14.07;;;;;;;;;;4864835;29;20701;-58
2022/12/02 06:53:35;;;;;;;25.97;14.40;;;;;;;;;;4867637;29;20222;-58
2022/12/02 06:56:01;;;;;;;19.87;13.37;;;;;;;;;;4870324;29;20235;-58
2022/12/02 06:58:37;;;;;;;22.17;12.37;;;;;;;;;;4872714;29;20187;-58
2022/12/02 07:01:13;;;;;;;20.83;12.67;;;;;;;;;;4869677;29;20671;-58
2022/12/02 07:03:42;;;;;;;24.30;13.77;;;;;;;;;;4872345;29;20198;-59
2022/12/02 07:06:23;;;;;;;25.23;13.63;;;;;;;;;;4871340;29;20180;-58
2022/12/02 07:08:49;;;;;;;27.23;14.70;;;;;;;;;;4856700;29;20187;-58
2022/12/02 07:11:19;;;;;;;23.00;13.83;;;;;;;;;;4869750;29;20194;-58
2022/12/02 07:13:45;;;;;;;25.37;13.67;;;;;;;;;;4867087;29;20194;-58
2022/12/02 07:16:33;;;;;;;24.17;13.97;;;;;;;;;;4870675;29;20247;-58
2022/12/02 07:18:59;;;;;;;23.23;13.30;;;;;;;;;;4870747;29;20218;-58
2022/12/02 07:21:25;;;;;;;27.10;13.90;;;;;;;;;;4859700;29;20669;-58
2022/12/02 07:23:51;;;;;;;25.00;14.50;;;;;;;;;;4856604;29;20751;-58
2022/12/02 07:26:19;;;;;;;24.83;14.70;;;;;;;;;;4871639;29;20193;-58
2022/12/02 07:28:45;;;;;;;27.20;14.90;;;;;;;;;;4872892;29;20190;-59
2022/12/02 07:31:19;;;;;;;28.60;15.37;;;;;;;;;;4871992;29;20895;-58
2022/12/02 07:33:45;;;;;;;27.13;14.77;;;;;;;;;;4883950;29;20241;-58
2022/12/02 07:36:11;;;;;;;21.73;14.63;;;;;;;;;;4869676;29;20198;-58
2022/12/02 07:38:38;;;;;;;27.83;15.40;;;;;;;;;;4862265;29;20646;-59
2022/12/02 07:41:04;;;;;;;26.73;15.63;;;;;;;;;;4868775;29;20211;-59
2022/12/02 07:43:31;;;;;;;31.23;16.07;;;;;;;;;;4872057;29;20191;-58
2022/12/02 07:45:57;;;;;;;31.37;17.10;;;;;;;;;;4871897;29;20175;-59
2022/12/02 07:48:23;;;;;;;29.67;15.93;;;;;;;;;;4871547;29;20176;-59
2022/12/02 07:50:49;;;;;;;28.50;16.17;;;;;;;;;;4869534;29;20183;-59
2022/12/02 07:53:15;;;;;;;26.87;15.60;;;;;;;;;;4867899;29;20223;-58
2022/12/02 07:55:42;;;;;;;31.57;17.73;;;;;;;;;;4866643;29;20297;-59
2022/12/02 07:58:08;;;;;;;28.00;15.47;;;;;;;;;;4867801;29;20179;-60
2022/12/02 08:00:35;;;;;;;34.73;17.43;;;;;;;;;;4868588;29;20389;-59
2022/12/02 08:03:01;;;;;;;32.17;17.27;;;;;;;;;;4854694;29;20529;-58
2022/12/02 08:05:27;;;;;;;33.53;17.37;;;;;;;;;;4871905;29;20570;-59
2022/12/02 08:07:54;;;;;;;28.60;17.10;;;;;;;;;;4855779;29;20175;-58
2022/12/02 08:10:20;;;;;;;33.23;18.27;;;;;;;;;;4872669;29;20372;-59
2022/12/02 08:12:46;;;;;;;29.33;16.80;;;;;;;;;;4856344;29;20678;-59
2022/12/02 08:15:13;;;;;;;34.63;17.63;;;;;;;;;;4872758;29;20670;-58
2022/12/02 08:17:39;;;;;;;38.47;16.70;;;;;;;;;;4872872;29;20183;-59
2022/12/02 08:20:06;;;;;;;34.33;17.80;;;;;;;;;;4872849;29;20167;-59
2022/12/02 08:22:32;;;;;;;30.50;17.00;;;;;;;;;;4871676;29;20199;-58
2022/12/02 08:24:58;;;;;;;32.17;16.77;;;;;;;;;;4872469;29;20195;-59
2022/12/02 08:27:24;;;;;;;33.20;18.20;;;;;;;;;;4872334;29;20178;-59
2022/12/02 08:29:51;;;;;;;30.23;17.07;;;;;;;;;;4872699;29;20175;-58
2022/12/02 08:32:18;;;;;;;32.53;17.67;;;;;;;;;;4872421;29;20722;-59
2022/12/02 08:34:50;;;;;;;28.30;15.80;;;;;;;;;;4874839;29;20303;-59
2022/12/02 08:37:16;;;;;;;36.40;18.87;;;;;;;;;;4871632;29;20689;-58
2022/12/02 08:39:42;;;;;;;30.40;16.77;;;;;;;;;;4871229;29;20167;-58
2022/12/02 08:42:09;;;;;;;31.87;17.37;;;;;;;;;;4872318;29;20183;-58
2022/12/02 08:44:35;;;;;;;32.73;16.53;;;;;;;;;;4872396;29;20166;-59
2022/12/02 08:47:01;;;;;;;29.77;15.93;;;;;;;;;;4872231;29;20210;-58
2022/12/02 08:49:27;;;;;;;29.93;17.00;;;;;;;;;;4872270;29;20262;-59
2022/12/02 08:51:53;;;;;;;29.80;15.83;;;;;;;;;;4869907;29;20188;-58
2022/12/02 08:54:19;;;;;;;33.73;18.23;;;;;;;;;;4872306;29;20164;-58
2022/12/02 08:56:46;;;;;;;31.00;18.10;;;;;;;;;;4872321;29;20168;-58
2022/12/02 08:59:12;;;;;;;28.13;17.27;;;;;;;;;;4872494;29;20167;-59
2022/12/02 09:01:38;;;;;;;29.17;17.17;;;;;;;;;;4871881;29;20340;-59
2022/12/02 09:04:04;;;;;;;29.00;15.87;;;;;;;;;;4872331;29;20160;-58
2022/12/02 09:06:30;;;;;;;33.97;17.80;;;;;;;;;;4869877;29;20175;-58
2022/12/02 09:08:56;;;;;;;32.43;17.70;;;;;;;;;;4872285;29;20330;-59
2022/12/02 09:11:22;;;;;;;28.43;16.70;;;;;;;;;;4871941;29;20262;-58
2022/12/02 09:13:48;;;;;;;29.23;17.10;;;;;;;;;;4872096;29;20198;-59
2022/12/02 09:16:15;;;;;;;26.13;16.17;;;;;;;;;;4870546;29;20182;-59
2022/12/02 09:18:41;;;;;;;27.50;16.20;;;;;;;;;;4872142;29;20163;-58
2022/12/02 09:21:07;;;;;;;28.63;16.20;;;;;;;;;;4872673;29;20199;-59
2022/12/02 09:23:33;;;;;;;28.43;16.70;;;;;;;;;;4875369;29;20187;-58
2022/12/02 09:25:59;;;;;;;27.77;16.30;;;;;;;;;;4873871;29;20210;-58
2022/12/02 09:28:25;;;;;;;26.63;16.00;;;;;;;;;;4875042;29;20182;-58
2022/12/02 09:30:51;;;;;;;30.83;16.63;;;;;;;;;;4874493;29;20642;-59
2022/12/02 09:33:17;;;;;;;26.70;15.73;;;;;;;;;;4875629;29;20278;-59
2022/12/02 09:35:43;;;;;;;27.00;15.27;;;;;;;;;;4873592;29;20191;-59
2022/12/02 09:38:09;;;;;;;23.30;15.27;;;;;;;;;;4858458;29;20187;-59
2022/12/02 09:40:36;;;;;;;28.20;14.70;;;;;;;;;;4875097;29;20159;-59
2022/12/02 09:43:03;;;;;;;28.20;16.20;;;;;;;;;;4875226;29;20390;-59
2022/12/02 09:45:30;;;;;;;28.40;16.33;;;;;;;;;;4874575;29;20191;-59
2022/12/02 09:47:56;;;;;;;27.40;15.13;;;;;;;;;;4875192;29;20167;-59
2022/12/02 09:50:22;;;;;;;28.40;16.80;;;;;;;;;;4871040;29;20185;-59
2022/12/02 09:52:49;;;;;;;26.40;15.33;;;;;;;;;;4873926;29;20191;-59
2022/12/02 09:55:16;;;;;;;24.57;15.93;;;;;;;;;;4856929;29;20187;-59
2022/12/02 09:57:43;;;;;;;25.60;14.90;;;;;;;;;;4873315;29;20198;-59
2022/12/02 10:00:13;;;;;;;26.27;14.70;;;;;;;;;;4874748;29;20240;-59
2022/12/02 10:02:42;;;;;;;26.17;14.97;;;;;;;;;;4864354;29;20206;-59
2022/12/02 10:05:13;;;;;;;26.47;16.40;;;;;;;;;;4874471;29;20555;-59
2022/12/02 10:07:39;;;;;;;25.83;15.77;;;;;;;;;;4873137;29;20236;-59
2022/12/02 10:10:05;;;;;;;23.93;16.07;;;;;;;;;;4857599;29;20669;-59
2022/12/02 10:12:31;;;;;;;23.93;14.83;;;;;;;;;;4871461;29;20186;-59
2022/12/02 10:14:58;;;;;;;25.23;16.47;;;;;;;;;;4874885;29;20179;-58
2022/12/02 10:17:24;;;;;;;23.73;15.57;;;;;;;;;;4873215;29;20197;-59
2022/12/02 10:19:51;;;;;;;25.63;16.13;;;;;;;;;;4873737;29;20179;-59
2022/12/02 10:22:18;;;;;;;24.07;15.87;;;;;;;;;;4872663;29;20605;-59
2022/12/02 10:24:45;;;;;;;24.80;16.00;;;;;;;;;;4874597;29;20665;-59
2022/12/02 10:27:28;;;;;;;24.80;15.17;;;;;;;;;;4872928;29;20178;-59
2022/12/02 10:29:54;;;;;;;24.90;15.50;;;;;;;;;;4873769;29;20225;-59
2022/12/02 10:32:27;;;;;;;22.53;14.37;;;;;;;;;;4873298;29;20231;-59
2022/12/02 10:35:04;;;;;;;23.70;14.77;;;;;;;;;;4875393;29;20238;-59
2022/12/02 10:37:32;;;;;;;24.10;14.97;;;;;;;;;;4872819;29;20179;-59
2022/12/02 10:40:09;;;;;;;21.97;15.57;;;;;;;;;;4874308;29;20298;-59
2022/12/02 10:42:35;;;;;;;24.70;15.27;;;;;;;;;;4873865;29;20679;-59
2022/12/02 10:45:16;;;;;;;24.17;16.30;;;;;;;;;;4858450;29;20174;-60
2022/12/02 10:47:43;;;;;;;28.10;16.67;;;;;;;;;;4871109;29;20186;-59
2022/12/02 10:50:15;;;;;;;24.63;16.10;;;;;;;;;;4872017;29;20175;-59
2022/12/02 10:52:46;;;;;;;21.20;14.73;;;;;;;;;;4871593;29;20175;-59
2022/12/02 10:55:12;;;;;;;25.03;15.43;;;;;;;;;;4872690;29;20467;-58
2022/12/02 10:57:38;;;;;;;25.37;15.90;;;;;;;;;;4872206;29;20235;-58
2022/12/02 11:00:15;;;;;;;26.63;16.97;;;;;;;;;;4872566;29;20576;-59
2022/12/02 11:02:45;;;;;;;22.60;15.70;;;;;;;;;;4872423;29;20206;-58
2022/12/02 11:05:17;;;;;;;21.93;14.33;;;;;;;;;;4857059;29;20184;-59
2022/12/02 11:08:09;;;;;;;21.27;14.80;;;;;;;;;;4871686;29;20251;-59
2022/12/02 11:10:40;;;;;;;23.90;15.97;;;;;;;;;;4850084;29;20283;-59
2022/12/02 11:13:26;;;;;;;25.03;16.03;;;;;;;;;;4855502;29;20210;-58
2022/12/02 11:15:52;;;;;;;23.13;16.03;;;;;;;;;;4853526;29;20184;-58
2022/12/02 11:18:24;;;;;;;25.13;15.27;;;;;;;;;;4854123;29;20168;-58
2022/12/02 11:21:14;;;;;;;22.30;15.70;;;;;;;;;;4852900;29;20204;-57
2022/12/02 11:23:40;;;;;;;22.83;14.27;;;;;;;;;;4840730;29;20622;-58
2022/12/02 11:26:07;;;;;;;25.07;16.10;;;;;;;;;;4873392;29;20684;-58
2022/12/02 11:28:34;;;;;;;25.30;15.50;;;;;;;;;;4873805;29;20168;-58
2022/12/02 11:31:16;;;;;;;26.27;17.33;;;;;;;;;;4873344;29;20178;-57
2022/12/02 11:33:48;;;;;;;22.87;15.77;;;;;;;;;;4856064;29;20207;-58
2022/12/02 11:36:20;;;;;;;21.67;15.53;;;;;;;;;;4853844;29;20497;-58
2022/12/02 11:38:52;;;;;;;25.27;16.67;;;;;;;;;;4853289;29;20210;-58
2022/12/02 11:41:19;;;;;;;27.30;16.67;;;;;;;;;;4869001;29;20214;-58
2022/12/02 11:43:45;;;;;;;23.33;15.30;;;;;;;;;;4855330;29;20661;-59
2022/12/02 11:46:15;;;;;;;27.47;16.47;;;;;;;;;;4873038;29;20397;-58
2022/12/02 11:48:49;;;;;;;22.83;16.17;;;;;;;;;;4872939;29;20223;-58
2022/12/02 11:51:28;;;;;;;23.57;15.77;;;;;;;;;;4855004;29;20271;-58
2022/12/02 11:53:54;;;;;;;26.33;16.53;;;;;;;;;;4856437;29;20179;-58
2022/12/02 11:56:20;;;;;;;26.33;17.33;;;;;;;;;;4872676;29;20190;-58
2022/12/02 11:58:46;;;;;;;23.73;15.53;;;;;;;;;;4873157;29;20263;-58
2022/12/02 12:01:17;;;;;;;29.53;17.13;;;;;;;;;;4873132;29;20230;-58
2022/12/02 12:03:44;;;;;;;25.50;16.13;;;;;;;;;;4856062;29;20250;-59
2022/12/02 12:06:14;;;;;;;23.03;16.10;;;;;;;;;;4871727;29;20155;-58
2022/12/02 12:08:43;;;;;;;23.13;15.20;;;;;;;;;;4855986;29;20206;-58
2022/12/02 12:11:36;;;;;;;24.77;16.43;;;;;;;;;;4856004;29;20195;-58
2022/12/02 12:14:04;;;;;;;25.83;16.57;;;;;;;;;;4852931;29;20206;-58
2022/12/02 12:16:31;;;;;;;27.37;16.60;;;;;;;;;;4872799;29;20577;-58
2022/12/02 12:19:14;;;;;;;25.10;15.83;;;;;;;;;;4855902;29;20171;-58
2022/12/02 12:21:59;;;;;;;22.37;15.50;;;;;;;;;;4854621;29;20294;-59
2022/12/02 12:24:27;;;;;;;24.90;16.50;;;;;;;;;;4872616;29;20282;-59
2022/12/02 12:26:57;;;;;;;25.60;16.67;;;;;;;;;;4872189;29;20238;-58
2022/12/02 12:29:24;;;;;;;26.40;17.37;;;;;;;;;;4872166;29;20168;-58
2022/12/02 12:31:50;;;;;;;26.33;18.07;;;;;;;;;;4871614;29;20261;-58
2022/12/02 12:34:16;;;;;;;29.40;17.50;;;;;;;;;;4856550;29;20360;-58
2022/12/02 12:36:43;;;;;;;30.30;18.30;;;;;;;;;;4871315;29;20649;-58
2022/12/02 12:39:09;;;;;;;27.63;17.27;;;;;;;;;;4872693;29;20584;-58
2022/12/02 12:41:36;;;;;;;26.10;17.30;;;;;;;;;;4872164;29;20717;-58
2022/12/02 12:44:02;;;;;;;28.70;17.03;;;;;;;;;;4872526;29;20585;-58
2022/12/02 12:46:28;;;;;;;30.27;19.57;;;;;;;;;;4872032;29;20175;-58
2022/12/02 12:48:54;;;;;;;25.83;17.63;;;;;;;;;;4871556;29;20296;-57
2022/12/02 12:51:20;;;;;;;28.47;18.93;;;;;;;;;;4871357;29;20168;-58
2022/12/02 12:53:47;;;;;;;28.97;18.10;;;;;;;;;;4871409;29;20222;-58
2022/12/02 12:56:13;;;;;;;27.23;17.90;;;;;;;;;;4874893;29;20686;-58
2022/12/02 12:58:39;;;;;;;26.83;18.03;;;;;;;;;;4875664;29;20175;-59
2022/12/02 13:01:05;;;;;;;25.97;17.60;;;;;;;;;;4871230;29;20203;-58
2022/12/02 13:03:31;;;;;;;29.10;18.77;;;;;;;;;;4872054;29;20190;-58
2022/12/02 13:05:57;;;;;;;30.60;19.80;;;;;;;;;;4869229;29;20232;-59
2022/12/02 13:08:23;;;;;;;31.07;17.70;;;;;;;;;;4872366;29;20631;-58
2022/12/02 13:10:49;;;;;;;28.40;18.27;;;;;;;;;;4874973;29;20186;-58
2022/12/02 13:13:15;;;;;;;31.70;18.67;;;;;;;;;;4875997;29;20164;-57
2022/12/02 13:15:41;;;;;;;28.43;17.83;;;;;;;;;;4873077;29;20191;-58
2022/12/02 13:18:07;;;;;;;27.50;17.97;;;;;;;;;;4876092;29;20164;-58
2022/12/02 13:20:33;;;;;;;29.90;18.80;;;;;;;;;;4873688;29;20191;-59
2022/12/02 13:22:59;;;;;;;29.43;18.00;;;;;;;;;;4874694;29;20264;-58
2022/12/02 13:25:25;;;;;;;26.53;17.77;;;;;;;;;;4874074;29;20222;-58
2022/12/02 13:27:51;;;;;;;27.13;17.83;;;;;;;;;;4857170;29;20202;-60
2022/12/02 13:30:19;;;;;;;28.10;17.83;;;;;;;;;;4874465;29;20661;-58
2022/12/02 13:32:45;;;;;;;28.43;18.57;;;;;;;;;;4858866;29;20176;-57
2022/12/02 13:35:12;;;;;;;26.83;16.63;;;;;;;;;;4875468;29;20317;-60
2022/12/02 13:37:38;;;;;;;27.40;17.57;;;;;;;;;;4874208;29;20176;-59
2022/12/02 13:40:05;;;;;;;31.10;18.63;;;;;;;;;;4862400;29;20183;-58
2022/12/02 13:42:31;;;;;;;30.83;19.27;;;;;;;;;;4872327;29;20221;-58
2022/12/02 13:44:57;;;;;;;25.37;17.43;;;;;;;;;;4874429;29;20544;-60
2022/12/02 13:47:23;;;;;;;29.20;17.73;;;;;;;;;;4875140;29;20183;-58
2022/12/02 13:49:49;;;;;;;27.83;18.97;;;;;;;;;;4857285;29;20540;-58
2022/12/02 13:52:15;;;;;;;26.97;17.77;;;;;;;;;;4864106;29;20190;-58
2022/12/02 13:54:42;;;;;;;30.27;18.73;;;;;;;;;;4867205;29;20183;-58
2022/12/02 13:57:08;;;;;;;27.60;17.67;;;;;;;;;;4873167;29;20214;-58
2022/12/02 13:59:40;;;;;;;32.57;18.77;;;;;;;;;;4873874;29;20701;-59
2022/12/02 14:02:06;;;;;;;27.80;17.37;;;;;;;;;;4857606;29;20210;-58
2022/12/02 14:04:33;;;;;;;28.47;18.10;;;;;;;;;;4875351;29;20191;-57
2022/12/02 14:06:59;;;;;;;28.43;18.67;;;;;;;;;;4872598;29;20254;-57
2022/12/02 14:09:25;;;;;;;29.83;18.40;;;;;;;;;;4874871;29;20654;-57
2022/12/02 14:11:51;;;;;;;24.77;16.60;;;;;;;;;;4873368;29;20697;-57
2022/12/02 14:14:18;;;;;;;29.23;17.83;;;;;;;;;;4872761;29;20657;-58
2022/12/02 14:16:45;;;;;;;24.80;17.17;;;;;;;;;;4874648;29;20270;-58
2022/12/02 14:19:11;;;;;;;28.33;17.27;;;;;;;;;;4870769;29;20644;-58
2022/12/02 14:21:37;;;;;;;27.17;17.63;;;;;;;;;;4871503;29;20198;-58